UKLU/UDJ METAR and TAF weather

Enter ICAO airport designator
Station Type Date Time Source
UKLU METAR 2021/04/14 15:00 UTC NOAA

UKLU 141500Z 32007MPS 9999 OVC035 05/M01 Q1016 NOSIG


Station Type Date Time Source
UKLU Decoded METAR 2021/04/14 15:00 UTC NOAA

Uzhhorod, Ukraine (UKLU) 48-38-05N 022-15-53E
Apr 14, 2021 - 11:00 AM EDT / 2021.04.14 1500 UTC
Wind: from the NW (320 degrees) at 16 MPH (14 KT):0
Visibility: greater than 7 mile(s):0
Sky conditions: overcast
Temperature: 41 F (5 C)
Dew Point: 30 F (-1 C)
Relative Humidity: 65%
Pressure (altimeter): 30.00 in. Hg (1016 hPa)
ob: UKLU 141500Z 32007MPS 9999 OVC035 05/M01 Q1016 NOSIG
cycle: 15

Station Type Date Time Source
UKLU TAF 2020/10/05 06:21 UTC NOAA

TAF TAF UKLU 050505Z 0506/0518 VRB01MPS 9999 SCT040
TEMPO 0506/0512 14005G10MPS SCT030CB

Example: see airport list